Time;durP1;ratioP1;P1;durP2;ratioP2;P2;SDS_P1;SDS_P2;PMS_P1;PMS_P2;Temp;Humidity;BMP_temperature;BMP_pressure;BME280_temperature;BME280_humidity;BME280_pressure;Samples;Min_cycle;Max_cycle;Signal;HPM_P1;HPM_P2
2023/07/04 00:30:04;;;;;;;8.63;4.20;;;13.70;99.90;;;;;;4979635;23;19921;31
2023/07/04 00:32:30;;;;;;;8.95;4.07;;;13.70;99.90;;;;;;5193501;23;20326;-84
2023/07/04 00:37:32;;;;;;;10.90;4.20;;;13.60;99.90;;;;;;4385045;23;20084;-83
2023/07/04 00:39:57;;;;;;;12.40;5.00;;;13.60;99.90;;;;;;4856743;29;20569;-83
2023/07/04 00:42:24;;;;;;;7.28;4.57;;;13.60;99.90;;;;;;4867275;29;20048;-84
2023/07/04 00:44:55;;;;;;;11.77;4.70;;;13.60;99.90;;;;;;4878680;29;20045;-85
2023/07/04 01:06:24;;;;;;;10.27;5.20;;;13.40;99.90;;;;;;6022654;23;20044;-70
2023/07/04 01:08:56;;;;;;;10.82;5.00;;;13.40;99.90;;;;;;4818840;29;20062;-71
2023/07/04 01:11:32;;;;;;;13.10;5.28;;;13.40;99.90;;;;;;4852210;29;20061;-71
2023/07/04 01:13:58;;;;;;;11.27;5.60;;;13.40;99.90;;;;;;4845611;29;20049;-70
2023/07/04 01:16:24;;;;;;;12.23;5.72;;;13.40;99.90;;;;;;4845695;29;20038;-71
2023/07/04 01:18:54;;;;;;;12.43;5.43;;;13.40;99.90;;;;;;4822050;29;20056;-71
2023/07/04 01:21:24;;;;;;;13.10;5.15;;;13.40;99.90;;;;;;4829222;29;20038;-70
2023/07/04 01:24:12;;;;;;;12.60;5.72;;;13.40;99.90;;;;;;4837890;29;21165;-70
2023/07/04 01:26:42;;;;;;;13.80;5.78;;;13.40;99.90;;;;;;4815071;29;20042;-71
2023/07/04 01:29:11;;;;;;;12.13;5.15;;;13.40;99.90;;;;;;4838368;29;20130;-70
2023/07/04 01:31:37;;;;;;;10.10;5.65;;;13.30;99.90;;;;;;4846615;29;20057;-70
2023/07/04 01:34:04;;;;;;;11.65;5.32;;;13.30;99.90;;;;;;4832907;29;20057;-70
2023/07/04 01:36:33;;;;;;;15.45;5.97;;;13.30;99.90;;;;;;4815880;29;20427;-70
2023/07/04 01:39:00;;;;;;;12.32;5.47;;;13.30;99.90;;;;;;4849033;29;20054;-71
2023/07/04 01:41:28;;;;;;;10.80;5.25;;;13.30;99.90;;;;;;4849824;29;20046;-70
2023/07/04 01:44:05;;;;;;;16.15;6.53;;;13.20;99.90;;;;;;4847330;29;20042;-71
2023/07/04 01:46:32;;;;;;;11.00;6.28;;;13.20;99.90;;;;;;4843013;29;20049;-71
2023/07/04 01:48:59;;;;;;;12.75;6.03;;;13.20;99.90;;;;;;4848615;29;20049;-69
2023/07/04 01:51:31;;;;;;;11.00;5.57;;;13.20;99.90;;;;;;4848800;29;20064;-71
2023/07/04 01:53:58;;;;;;;9.80;6.15;;;13.20;99.90;;;;;;4836961;29;20074;-71
2023/07/04 01:56:24;;;;;;;10.65;6.28;;;13.20;99.90;;;;;;4835345;29;20172;-71
2023/07/04 01:58:50;;;;;;;13.88;6.28;;;13.20;99.90;;;;;;4836559;29;20146;-71
2023/07/04 02:01:16;;;;;;;18.05;6.38;;;13.20;99.90;;;;;;4833440;29;20054;-71
2023/07/04 02:03:42;;;;;;;12.70;6.43;;;13.20;99.90;;;;;;4848003;29;20136;-71
2023/07/04 02:06:08;;;;;;;16.05;6.85;;;13.20;99.90;;;;;;4836241;29;20050;-71
2023/07/04 02:08:34;;;;;;;15.45;6.70;;;13.20;99.90;;;;;;4848150;29;20078;-71
2023/07/04 02:10:59;;;;;;;17.83;5.95;;;13.20;99.90;;;;;;4837669;29;20058;-71
2023/07/04 02:13:25;;;;;;;17.77;6.70;;;13.20;99.90;;;;;;4833252;29;20154;-71
2023/07/04 02:15:51;;;;;;;13.70;6.18;;;13.20;99.90;;;;;;4838401;29;20046;-71
2023/07/04 02:18:17;;;;;;;14.40;6.15;;;13.20;99.90;;;;;;4819145;29;20061;-71
2023/07/04 02:20:43;;;;;;;15.55;6.68;;;13.20;99.90;;;;;;4835778;29;20119;-71
2023/07/04 02:23:09;;;;;;;15.48;6.65;;;13.20;99.90;;;;;;4820310;29;20111;-71
2023/07/04 02:25:40;;;;;;;11.57;5.72;;;13.20;99.90;;;;;;4835996;29;20054;-71
2023/07/04 02:28:06;;;;;;;14.55;6.18;;;13.20;99.90;;;;;;4836474;29;20042;-71
2023/07/04 02:30:32;;;;;;;11.05;6.38;;;13.20;99.90;;;;;;4835788;29;20550;-71
2023/07/04 02:32:58;;;;;;;12.35;6.05;;;13.10;99.90;;;;;;4836678;29;20057;-70
2023/07/04 02:35:24;;;;;;;11.65;5.70;;;13.20;99.90;;;;;;4846492;29;20073;-71
2023/07/04 02:37:49;;;;;;;15.93;6.40;;;13.20;99.90;;;;;;4849501;29;20056;-71
2023/07/04 02:40:15;;;;;;;12.63;6.10;;;13.20;99.90;;;;;;4819412;29;20054;-71
2023/07/04 02:42:41;;;;;;;14.95;6.70;;;13.10;99.90;;;;;;4835031;29;20058;-71
2023/07/04 02:45:08;;;;;;;11.52;6.20;;;13.20;99.90;;;;;;4849108;29;20057;-70
2023/07/04 02:47:34;;;;;;;10.68;5.55;;;13.10;99.90;;;;;;4819496;29;20103;-70
2023/07/04 02:50:00;;;;;;;13.93;6.18;;;13.10;99.90;;;;;;4821342;29;20057;-70
2023/07/04 02:52:26;;;;;;;11.98;5.75;;;13.10;99.90;;;;;;4847457;29;20053;-71
2023/07/04 02:54:52;;;;;;;14.43;5.90;;;13.20;99.90;;;;;;4837048;29;20136;-70
2023/07/04 02:57:18;;;;;;;14.93;5.65;;;13.10;99.90;;;;;;4835585;29;20101;-70
2023/07/04 02:59:45;;;;;;;11.88;5.60;;;13.10;99.90;;;;;;4835120;29;20050;-71
2023/07/04 03:02:11;;;;;;;10.25;5.43;;;13.10;99.90;;;;;;4835840;29;20046;-70
2023/07/04 03:04:37;;;;;;;12.25;5.40;;;13.20;99.90;;;;;;4834522;29;20109;-70
2023/07/04 03:07:04;;;;;;;8.23;4.45;;;13.20;99.90;;;;;;4837084;29;21172;-70
2023/07/04 03:09:30;;;;;;;9.23;4.68;;;13.10;99.90;;;;;;4834466;29;20121;-71
2023/07/04 03:11:56;;;;;;;12.88;5.03;;;13.20;99.90;;;;;;4835648;29;20171;-71
2023/07/04 03:14:23;;;;;;;10.05;5.20;;;13.20;99.90;;;;;;4835338;29;20076;-71
2023/07/04 03:16:48;;;;;;;11.75;5.13;;;13.20;99.90;;;;;;4820572;29;20067;-70
2023/07/04 03:19:14;;;;;;;9.85;4.88;;;13.20;99.90;;;;;;4836418;29;20554;-71
2023/07/04 03:21:40;;;;;;;12.10;4.82;;;13.20;99.90;;;;;;4833832;29;20058;-71
2023/07/04 03:24:06;;;;;;;12.00;5.00;;;13.20;99.90;;;;;;4819904;29;20056;-71
2023/07/04 03:26:34;;;;;;;9.27;4.70;;;13.20;99.90;;;;;;4848332;29;20037;-71
2023/07/04 03:29:00;;;;;;;8.77;5.32;;;13.20;99.90;;;;;;4837581;29;20046;-71
2023/07/04 03:31:26;;;;;;;12.10;4.50;;;13.20;99.90;;;;;;4836677;29;20636;-71
2023/07/04 03:33:52;;;;;;;10.73;5.07;;;13.20;99.90;;;;;;4840264;29;20050;-71
2023/07/04 03:36:18;;;;;;;10.73;4.65;;;13.20;99.90;;;;;;4823554;29;20049;-70
2023/07/04 03:38:43;;;;;;;13.57;5.90;;;13.20;99.90;;;;;;4851427;29;20060;-71
2023/07/04 03:41:09;;;;;;;8.82;4.85;;;13.20;99.90;;;;;;4809786;29;20041;-71
2023/07/04 03:43:35;;;;;;;9.13;5.07;;;13.20;99.90;;;;;;4840269;29;20068;-71
2023/07/04 03:46:00;;;;;;;10.35;5.30;;;13.20;99.90;;;;;;4840305;29;20208;-70
2023/07/04 03:48:26;;;;;;;12.25;5.13;;;13.20;99.90;;;;;;4821764;29;20038;-71
2023/07/04 03:50:52;;;;;;;12.93;5.28;;;13.20;99.90;;;;;;4839851;29;20428;-71
2023/07/04 03:53:18;;;;;;;11.85;6.13;;;13.20;99.90;;;;;;4839313;29;20052;-71
2023/07/04 03:55:43;;;;;;;11.85;5.63;;;13.20;99.90;;;;;;4824792;29;20069;-70
2023/07/04 03:58:09;;;;;;;13.65;5.55;;;13.20;99.90;;;;;;4851107;29;20542;-70
2023/07/04 04:04:16;;;;;;;15.43;5.38;;;13.20;99.90;;;;;;4852036;29;20107;-71
2023/07/04 04:06:41;;;;;;;10.77;5.20;;;13.20;99.90;;;;;;4851597;29;20140;-70
2023/07/04 04:09:07;;;;;;;13.15;5.90;;;13.10;99.90;;;;;;4848448;29;20066;-70
2023/07/04 04:11:33;;;;;;;12.40;5.10;;;13.20;99.90;;;;;;4837243;29;20140;-70
2023/07/04 04:13:58;;;;;;;13.35;5.43;;;13.10;99.90;;;;;;4846134;29;20049;-71
2023/07/04 04:16:24;;;;;;;11.30;5.25;;;13.20;99.90;;;;;;4846446;29;20079;-70
2023/07/04 04:18:51;;;;;;;11.52;5.15;;;13.20;99.90;;;;;;4840009;29;20058;-70
2023/07/04 04:21:18;;;;;;;10.63;5.43;;;13.20;99.90;;;;;;4849535;29;20565;-70
2023/07/04 04:23:43;;;;;;;13.35;5.70;;;13.20;99.90;;;;;;4849670;29;20065;-70
2023/07/04 04:26:10;;;;;;;10.30;5.50;;;13.20;99.90;;;;;;4848894;29;20049;-70
2023/07/04 04:28:35;;;;;;;11.73;5.50;;;13.20;99.90;;;;;;4849970;29;20057;-70
2023/07/04 04:31:01;;;;;;;15.43;6.28;;;13.20;99.90;;;;;;4847945;29;20053;-71
2023/07/04 04:33:27;;;;;;;11.43;5.68;;;13.20;99.90;;;;;;4845255;29;20053;-70
2023/07/04 04:35:52;;;;;;;13.50;6.55;;;13.30;99.90;;;;;;4850771;29;20115;-70
2023/07/04 04:38:18;;;;;;;12.82;6.07;;;13.30;99.90;;;;;;4850725;29;20054;-71
2023/07/04 04:40:44;;;;;;;11.52;5.95;;;13.30;99.90;;;;;;4849015;29;20122;-70
2023/07/04 04:43:09;;;;;;;11.88;5.82;;;13.30;99.90;;;;;;4851147;29;20474;-70
2023/07/04 04:45:38;;;;;;;10.93;5.82;;;13.30;99.90;;;;;;4849210;29;20096;-70
2023/07/04 04:48:06;;;;;;;13.18;6.28;;;13.40;99.90;;;;;;4850404;29;20079;-70
2023/07/04 04:50:32;;;;;;;12.80;6.10;;;13.40;99.90;;;;;;4833136;29;20064;-70
2023/07/04 04:52:59;;;;;;;17.63;6.47;;;13.50;99.90;;;;;;4847927;29;20140;-70
2023/07/04 04:59:06;;;;;;;12.30;5.75;;;13.50;99.90;;;;;;4847390;29;20057;-71
2023/07/04 05:01:32;;;;;;;18.25;6.28;;;13.50;99.90;;;;;;4830428;29;20324;-71
2023/07/04 05:03:58;;;;;;;12.25;5.82;;;13.50;99.90;;;;;;4831600;29;20048;-71
2023/07/04 05:06:26;;;;;;;12.10;5.47;;;13.50;99.90;;;;;;4848048;29;20053;-72
2023/07/04 05:08:52;;;;;;;11.00;5.70;;;13.50;99.90;;;;;;4848120;29;20436;-71
2023/07/04 05:11:18;;;;;;;11.85;5.47;;;13.50;99.90;;;;;;4846885;29;20042;-71
2023/07/04 05:13:45;;;;;;;8.38;5.53;;;13.60;99.90;;;;;;4846055;29;20050;-72
2023/07/04 05:16:13;;;;;;;13.80;5.50;;;13.60;99.90;;;;;;4849004;29;20048;-72
2023/07/04 05:18:40;;;;;;;15.10;5.45;;;13.60;99.90;;;;;;4849730;29;20073;-72
2023/07/04 05:21:08;;;;;;;15.63;5.63;;;13.60;99.90;;;;;;4850548;29;20057;-72
2023/07/04 05:23:36;;;;;;;14.57;5.78;;;13.60;99.90;;;;;;4834575;29;20049;-71
2023/07/04 05:26:03;;;;;;;9.90;5.30;;;13.60;99.90;;;;;;4849246;29;20058;-70
2023/07/04 05:28:29;;;;;;;11.80;5.28;;;13.70;99.90;;;;;;4848850;29;20061;-71
2023/07/04 05:31:07;;;;;;;10.63;4.78;;;13.70;99.90;;;;;;4848178;29;20041;-71
2023/07/04 05:33:33;;;;;;;12.65;4.88;;;13.70;99.90;;;;;;4850299;29;20431;-72
2023/07/04 05:36:08;;;;;;;9.00;4.97;;;13.70;99.90;;;;;;4847273;29;20037;-70
2023/07/04 05:38:35;;;;;;;10.27;4.82;;;13.80;99.90;;;;;;4848906;29;20042;-70
2023/07/04 05:41:01;;;;;;;8.13;4.55;;;13.80;99.90;;;;;;4828945;29;20096;-71
2023/07/04 05:43:27;;;;;;;9.07;4.30;;;13.80;99.90;;;;;;4828731;29;20529;-70
2023/07/04 05:45:54;;;;;;;8.27;4.38;;;13.80;99.90;;;;;;4846911;29;20090;-69
2023/07/04 05:48:21;;;;;;;9.00;4.63;;;13.80;99.90;;;;;;4830299;29;20058;-71
2023/07/04 05:50:50;;;;;;;8.95;4.30;;;13.90;99.90;;;;;;4830590;29;20061;-71
2023/07/04 05:53:16;;;;;;;9.00;4.10;;;13.90;99.90;;;;;;4846162;29;20061;-70
2023/07/04 05:55:42;;;;;;;9.20;4.10;;;13.90;99.90;;;;;;4847539;29;20053;-71
2023/07/04 05:58:08;;;;;;;6.88;3.95;;;14.00;99.90;;;;;;4845420;29;20038;-70
2023/07/04 06:00:36;;;;;;;8.30;3.75;;;14.00;99.90;;;;;;4844800;29;20042;-70
2023/07/04 06:03:05;;;;;;;7.57;3.55;;;14.00;99.90;;;;;;4854209;29;20057;-69
2023/07/04 06:05:31;;;;;;;9.20;3.40;;;14.10;99.90;;;;;;4831425;29;20056;-70
2023/07/04 06:07:56;;;;;;;8.55;3.33;;;14.10;99.90;;;;;;4847998;29;20077;-70
2023/07/04 06:10:23;;;;;;;8.45;3.17;;;14.10;99.90;;;;;;4845683;29;20126;-70
2023/07/04 06:12:50;;;;;;;10.27;3.50;;;14.20;99.90;;;;;;4849377;29;20155;-70
2023/07/04 06:15:16;;;;;;;6.13;3.13;;;14.20;99.90;;;;;;4839380;29;20073;-70
2023/07/04 06:17:42;;;;;;;12.00;3.40;;;14.30;99.90;;;;;;4838275;29;20050;-69
2023/07/04 06:20:08;;;;;;;6.35;2.78;;;14.30;99.90;;;;;;4851408;29;20474;-71
2023/07/04 06:22:34;;;;;;;4.90;2.45;;;14.40;99.90;;;;;;4847270;29;20050;-70
2023/07/04 06:25:00;;;;;;;7.93;2.78;;;14.40;99.90;;;;;;4853057;29;20049;-70
2023/07/04 06:27:27;;;;;;;7.22;3.17;;;14.50;99.90;;;;;;4841699;29;20057;-70
2023/07/04 06:29:55;;;;;;;9.60;2.83;;;14.50;99.90;;;;;;4830528;29;20050;-75
2023/07/04 06:32:21;;;;;;;5.55;2.63;;;14.50;99.90;;;;;;4833544;29;20194;-71
2023/07/04 06:34:47;;;;;;;7.88;2.50;;;14.60;99.90;;;;;;4847308;29;20042;-71
2023/07/04 06:37:12;;;;;;;7.07;2.50;;;14.60;99.90;;;;;;4834622;29;20054;-73
2023/07/04 06:39:38;;;;;;;6.65;2.90;;;14.60;99.90;;;;;;4820372;29;20062;-74
2023/07/04 06:42:04;;;;;;;7.18;2.80;;;14.70;99.90;;;;;;4811688;29;20050;-70
2023/07/04 06:44:29;;;;;;;7.45;2.30;;;14.70;99.90;;;;;;4860103;29;20089;-71
2023/07/04 06:46:55;;;;;;;4.70;2.20;;;14.80;99.90;;;;;;4840262;29;20042;-71
2023/07/04 06:49:21;;;;;;;6.03;2.45;;;14.90;99.90;;;;;;4835525;29;20054;-71
2023/07/04 06:51:47;;;;;;;5.15;2.50;;;15.00;99.90;;;;;;4843675;29;20100;-69
2023/07/04 06:54:12;;;;;;;5.03;2.50;;;15.00;99.90;;;;;;4818491;29;20324;-70
2023/07/04 06:56:38;;;;;;;8.98;2.67;;;15.10;99.90;;;;;;4844970;29;20054;-70
2023/07/04 06:59:04;;;;;;;6.88;2.53;;;15.10;99.90;;;;;;4853673;29;20135;-70
2023/07/04 07:01:32;;;;;;;4.93;2.47;;;15.10;99.90;;;;;;4829537;29;20065;-70
2023/07/04 07:03:59;;;;;;;4.97;2.45;;;15.10;99.90;;;;;;4848519;29;20060;-70
2023/07/04 07:06:26;;;;;;;6.88;2.42;;;15.10;99.90;;;;;;4849200;29;20068;-71
2023/07/04 07:08:52;;;;;;;3.42;1.90;;;15.10;99.90;;;;;;4833693;29;20527;-71
2023/07/04 07:11:19;;;;;;;5.63;2.50;;;15.20;99.90;;;;;;4849487;29;20105;-70
2023/07/04 07:13:46;;;;;;;5.93;2.20;;;15.20;99.90;;;;;;4857519;29;20063;-70
2023/07/04 07:16:13;;;;;;;4.80;2.40;;;15.30;99.90;;;;;;4864146;29;20053;-70
2023/07/04 07:18:40;;;;;;;6.78;2.00;;;15.30;99.90;;;;;;4860658;29;20089;-70
2023/07/04 07:21:08;;;;;;;12.57;2.58;;;15.30;99.90;;;;;;4854035;29;20042;-70
2023/07/04 07:23:36;;;;;;;6.50;2.20;;;15.30;99.90;;;;;;4843928;29;20054;-70
2023/07/04 07:26:03;;;;;;;3.10;1.90;;;15.40;99.90;;;;;;4859767;29;20097;-70
2023/07/04 07:28:31;;;;;;;5.22;2.78;;;15.40;99.90;;;;;;4835789;29;20147;-72
2023/07/04 07:31:26;;;;;;;4.43;2.40;;;15.40;99.90;;;;;;4849280;29;20042;-71
2023/07/04 07:33:52;;;;;;;5.97;2.20;;;15.40;99.90;;;;;;4852314;29;20160;-72
2023/07/04 07:36:20;;;;;;;5.43;2.10;;;15.40;99.90;;;;;;4860968;29;20073;-70
2023/07/04 07:38:46;;;;;;;4.75;1.90;;;15.40;99.90;;;;;;4852206;29;20046;-70
2023/07/04 07:41:12;;;;;;;6.55;2.30;;;15.40;99.90;;;;;;4850365;29;20041;-70
2023/07/04 07:43:39;;;;;;;9.85;2.70;;;15.50;99.90;;;;;;4842436;29;20057;-70
2023/07/04 07:46:11;;;;;;;8.10;2.38;;;15.60;99.90;;;;;;4854489;29;20078;-70
2023/07/04 07:48:37;;;;;;;5.22;2.25;;;15.70;99.90;;;;;;4842752;29;20058;-70
2023/07/04 07:51:05;;;;;;;4.10;2.30;;;15.80;99.90;;;;;;4850437;29;20534;-71
2023/07/04 07:53:31;;;;;;;4.63;2.20;;;15.80;99.90;;;;;;4835775;29;20043;-70
2023/07/04 07:55:56;;;;;;;5.53;2.28;;;15.80;99.90;;;;;;4838017;29;20218;-70
2023/07/04 07:58:22;;;;;;;5.43;1.90;;;15.90;99.90;;;;;;4852488;29;20077;-70
2023/07/04 08:00:48;;;;;;;5.18;2.25;;;16.00;99.90;;;;;;4847108;29;20090;-70
2023/07/04 08:03:13;;;;;;;7.15;2.15;;;16.00;99.90;;;;;;4850264;29;20042;-70
2023/07/04 08:05:41;;;;;;;4.13;2.15;;;16.10;99.90;;;;;;4851532;29;20046;-70
2023/07/04 08:08:07;;;;;;;6.03;2.15;;;16.10;99.90;;;;;;4859945;29;20062;-70
2023/07/04 08:10:38;;;;;;;5.47;2.08;;;16.20;99.90;;;;;;4850427;29;20120;-70
2023/07/04 08:13:04;;;;;;;10.57;2.35;;;16.20;99.90;;;;;;4837607;29;20123;-70
2023/07/04 08:15:29;;;;;;;7.70;2.45;;;16.30;99.90;;;;;;4831780;29;20363;-70
2023/07/04 08:17:55;;;;;;;8.25;2.17;;;16.40;99.90;;;;;;4855321;29;20663;-70
2023/07/04 08:20:21;;;;;;;6.63;2.15;;;16.40;99.90;;;;;;4851090;29;20068;-70
2023/07/04 08:22:47;;;;;;;4.57;2.13;;;16.50;99.90;;;;;;4819692;29;20101;-70
2023/07/04 08:25:13;;;;;;;3.50;1.88;;;16.50;99.90;;;;;;4850078;29;20065;-70
2023/07/04 08:27:39;;;;;;;3.88;1.92;;;16.60;99.90;;;;;;4831368;29;20101;-69
2023/07/04 08:30:05;;;;;;;5.22;1.80;;;16.60;99.90;;;;;;4830954;29;20087;-70
2023/07/04 08:32:33;;;;;;;7.30;1.92;;;16.60;99.90;;;;;;4851133;29;20532;-70
2023/07/04 08:34:59;;;;;;;6.28;1.98;;;16.70;99.90;;;;;;4836460;29;20086;-70
2023/07/04 08:37:25;;;;;;;3.33;2.10;;;16.70;99.90;;;;;;4843677;29;20049;-70
2023/07/04 08:39:51;;;;;;;4.80;1.98;;;16.60;99.90;;;;;;4848032;29;20078;-70
2023/07/04 08:42:19;;;;;;;5.93;2.20;;;16.70;99.90;;;;;;4850181;29;20049;-70
2023/07/04 08:44:52;;;;;;;5.03;1.77;;;16.70;99.90;;;;;;4854608;29;20054;-70
2023/07/04 08:47:25;;;;;;;5.78;2.00;;;16.70;99.90;;;;;;4843862;29;20049;-70
2023/07/04 08:49:54;;;;;;;7.28;2.13;;;16.60;99.90;;;;;;4847972;29;20057;-70
2023/07/04 08:52:38;;;;;;;3.42;1.92;;;16.70;99.90;;;;;;4830867;29;20471;-70
2023/07/04 08:55:11;;;;;;;4.28;1.88;;;16.60;99.90;;;;;;4827693;29;20046;-70
2023/07/04 08:57:48;;;;;;;6.38;2.17;;;16.60;99.90;;;;;;4838480;29;20054;-70
2023/07/04 09:00:23;;;;;;;10.15;2.58;;;16.70;99.90;;;;;;4845927;29;20116;-70
2023/07/04 09:03:00;;;;;;;5.97;2.17;;;16.70;99.90;;;;;;4847182;29;20113;-70
2023/07/04 09:05:44;;;;;;;8.30;2.40;;;16.70;99.90;;;;;;4845428;29;20056;-70
2023/07/04 09:08:21;;;;;;;6.45;2.47;;;16.70;99.90;;;;;;4847010;29;20045;-70
2023/07/04 09:10:49;;;;;;;8.52;2.42;;;16.70;99.90;;;;;;4847510;29;20090;-70
2023/07/04 09:13:31;;;;;;;5.57;2.35;;;16.80;99.90;;;;;;4847062;29;20090;-70
2023/07/04 09:16:01;;;;;;;6.65;2.60;;;16.80;99.90;;;;;;4826456;29;20082;-70
2023/07/04 09:18:33;;;;;;;8.10;2.22;;;16.90;99.90;;;;;;4849028;29;20053;-70
2023/07/04 09:21:08;;;;;;;6.05;2.80;;;17.00;99.90;;;;;;4848863;29;20046;-70
2023/07/04 09:23:34;;;;;;;6.68;2.30;;;17.10;99.90;;;;;;4846046;29;20387;-70
2023/07/04 09:26:00;;;;;;;6.93;2.63;;;17.20;99.90;;;;;;4843771;29;20080;-70
2023/07/04 09:28:28;;;;;;;8.63;2.58;;;17.40;99.90;;;;;;4859566;29;20096;-70
2023/07/04 09:30:58;;;;;;;7.28;2.72;;;17.40;99.90;;;;;;4855733;29;20125;-70
2023/07/04 09:33:26;;;;;;;10.10;2.60;;;17.40;99.90;;;;;;4848357;29;20044;-70
2023/07/04 09:35:52;;;;;;;5.43;2.42;;;17.40;99.90;;;;;;4831397;29;20042;-70
2023/07/04 09:38:18;;;;;;;6.13;2.42;;;17.40;99.90;;;;;;4853879;29;20080;-70
2023/07/04 09:40:50;;;;;;;8.25;2.53;;;17.40;99.90;;;;;;4853032;29;20083;-70
2023/07/04 09:43:30;;;;;;;9.75;2.80;;;17.60;99.90;;;;;;4845877;29;20045;-70
2023/07/04 09:46:20;;;;;;;6.93;2.35;;;17.60;99.90;;;;;;4849100;29;20085;-70
2023/07/04 09:48:46;;;;;;;8.23;2.78;;;17.60;99.90;;;;;;4846227;29;20074;-70
2023/07/04 09:51:31;;;;;;;7.72;2.90;;;17.70;99.90;;;;;;4850469;29;20468;-70
2023/07/04 09:54:18;;;;;;;9.50;2.70;;;17.80;99.90;;;;;;4802835;29;20050;-71
2023/07/04 09:56:45;;;;;;;8.10;2.80;;;17.90;99.90;;;;;;4836686;29;20054;-70
2023/07/04 09:59:17;;;;;;;12.40;3.22;;;18.10;99.90;;;;;;4836843;29;20139;-72
2023/07/04 10:01:48;;;;;;;7.75;2.80;;;18.30;99.90;;;;;;4836642;29;20049;-70
2023/07/04 10:04:25;;;;;;;11.05;2.75;;;18.30;99.90;;;;;;4835674;29;20121;-70
2023/07/04 10:06:52;;;;;;;11.27;3.20;;;18.40;99.90;;;;;;4820368;29;20483;-71
2023/07/04 10:09:20;;;;;;;7.90;3.08;;;18.40;99.90;;;;;;4833887;29;20144;-70
2023/07/04 10:11:48;;;;;;;9.52;2.95;;;18.30;99.90;;;;;;4836791;29;20054;-71
2023/07/04 10:14:15;;;;;;;5.82;2.67;;;18.30;99.90;;;;;;4820263;29;20122;-70
2023/07/04 10:16:50;;;;;;;6.95;3.13;;;18.60;99.90;;;;;;4835960;29;20106;-69
2023/07/04 10:19:19;;;;;;;8.35;2.80;;;18.80;99.90;;;;;;4820050;29;20516;-71
2023/07/04 10:21:53;;;;;;;10.52;3.17;;;18.60;99.90;;;;;;4834375;29;20083;-71
2023/07/04 10:24:22;;;;;;;5.55;2.90;;;18.40;99.90;;;;;;4835484;29;20146;-71
2023/07/04 10:27:00;;;;;;;9.63;2.97;;;18.20;99.90;;;;;;4819872;29;20058;-70
2023/07/04 10:29:39;;;;;;;7.75;2.83;;;18.30;99.90;;;;;;4836432;29;20169;-70
2023/07/04 10:32:13;;;;;;;9.52;2.80;;;18.60;99.90;;;;;;4836252;29;20110;-71
2023/07/04 10:34:41;;;;;;;6.03;2.63;;;19.00;99.90;;;;;;4848429;29;20077;-71
2023/07/04 10:37:12;;;;;;;6.20;2.53;;;19.30;99.90;;;;;;4819868;29;20046;-71
2023/07/04 10:39:38;;;;;;;8.30;2.50;;;19.40;99.90;;;;;;4835139;29;20073;-71
2023/07/04 10:42:36;;;;;;;9.23;2.63;;;19.60;99.90;;;;;;4841571;29;20109;-71
2023/07/04 10:45:04;;;;;;;6.60;2.60;;;19.70;99.90;;;;;;4836035;29;20066;-70
2023/07/04 10:47:37;;;;;;;6.43;2.47;;;20.00;99.90;;;;;;4836301;29;20053;-71
2023/07/04 10:50:33;;;;;;;5.18;2.22;;;20.10;99.90;;;;;;4819884;29;20041;-71
2023/07/04 10:53:00;;;;;;;7.97;2.53;;;20.20;99.90;;;;;;4833549;29;20103;-71
2023/07/04 10:55:35;;;;;;;6.05;2.03;;;20.20;99.90;;;;;;4819221;29;20052;-70
2023/07/04 10:58:16;;;;;;;8.68;2.42;;;20.00;99.90;;;;;;4819602;29;20065;-71
2023/07/04 11:00:50;;;;;;;6.23;2.23;;;19.80;99.90;;;;;;4835687;29;20079;-71
2023/07/04 11:03:45;;;;;;;7.55;2.55;;;19.70;99.90;;;;;;4835510;29;20091;-71
2023/07/04 11:06:17;;;;;;;6.70;2.40;;;19.50;99.90;;;;;;4835696;29;20083;-71
2023/07/04 11:08:43;;;;;;;8.60;2.75;;;19.50;99.90;;;;;;4835408;29;20062;-71
2023/07/04 11:11:12;;;;;;;7.50;2.30;;;19.30;99.90;;;;;;4835460;29;20558;-71
2023/07/04 11:13:49;;;;;;;4.50;2.25;;;19.30;99.90;;;;;;4835587;29;20030;-70
2023/07/04 11:16:17;;;;;;;7.28;1.95;;;19.50;99.90;;;;;;4838248;29;20054;-71
2023/07/04 11:18:55;;;;;;;3.67;1.80;;;19.80;99.90;;;;;;4837992;29;20046;-70
2023/07/04 11:21:20;;;;;;;7.28;2.08;;;19.90;99.90;;;;;;4834846;29;20130;-71
2023/07/04 11:24:09;;;;;;;5.18;1.88;;;19.80;99.90;;;;;;4836471;29;20129;-70
2023/07/04 11:27:09;;;;;;;6.40;1.80;;;19.60;99.90;;;;;;4835152;29;20601;-71
2023/07/04 11:29:55;;;;;;;6.63;2.35;;;19.30;99.90;;;;;;4834356;29;20395;-71
2023/07/04 11:32:36;;;;;;;6.75;2.15;;;19.00;99.90;;;;;;4836660;29;20111;-71
2023/07/04 11:35:11;;;;;;;4.80;1.95;;;18.90;99.90;;;;;;4819479;29;20066;-71
2023/07/04 11:37:51;;;;;;;7.93;2.58;;;18.70;99.90;;;;;;4834126;29;20123;-71
2023/07/04 11:40:29;;;;;;;5.97;2.30;;;18.60;99.90;;;;;;4836833;29;20546;-70
2023/07/04 11:43:03;;;;;;;7.18;2.10;;;18.50;99.90;;;;;;4834247;29;20632;-71
2023/07/04 11:45:30;;;;;;;7.68;2.00;;;18.70;99.90;;;;;;4835713;29;20050;-70
2023/07/04 11:48:03;;;;;;;7.03;2.05;;;18.70;99.90;;;;;;4819461;29;20428;-71
2023/07/04 11:50:34;;;;;;;7.45;2.40;;;18.80;99.90;;;;;;4821021;29;20053;-70
2023/07/04 11:53:02;;;;;;;4.50;2.28;;;18.60;99.90;;;;;;4839440;29;20084;-70
2023/07/04 11:55:34;;;;;;;5.30;2.42;;;18.50;99.90;;;;;;4844667;29;20385;-69
2023/07/04 11:58:08;;;;;;;5.65;2.40;;;18.50;99.90;;;;;;4848992;29;20054;-70
2023/07/04 12:08:01;;;;;;;6.18;2.28;;;18.50;99.90;;;;;;4847550;29;20663;-70
2023/07/04 12:10:30;;;;;;;9.80;2.35;;;18.40;99.90;;;;;;4859785;29;20054;-71
2023/07/04 12:13:02;;;;;;;5.82;2.63;;;18.40;99.90;;;;;;4852140;29;20053;-71
2023/07/04 12:15:32;;;;;;;8.20;2.10;;;18.30;99.90;;;;;;4839052;29;20064;-71
2023/07/04 12:18:19;;;;;;;7.18;2.55;;;18.20;99.90;;;;;;4854269;29;20072;-71
2023/07/04 12:20:45;;;;;;;6.20;2.40;;;18.20;99.90;;;;;;4838551;29;20064;-71
2023/07/04 12:23:11;;;;;;;7.13;2.47;;;18.00;99.90;;;;;;4851632;29;20576;-71
2023/07/04 12:25:41;;;;;;;8.65;2.40;;;18.00;99.90;;;;;;4847801;29;20073;-71
2023/07/04 12:28:09;;;;;;;7.28;2.20;;;17.90;99.90;;;;;;4848627;29;20129;-71
2023/07/04 12:30:38;;;;;;;6.88;2.63;;;17.90;99.90;;;;;;4832101;29;20100;-72
2023/07/04 12:33:04;;;;;;;7.53;2.40;;;18.00;99.90;;;;;;4851397;29;20038;-71
2023/07/04 12:39:46;;;;;;;8.23;2.70;;;18.10;99.90;;;;;;4836316;29;20061;-71
2023/07/04 12:42:28;;;;;;;9.52;3.15;;;18.30;99.90;;;;;;4835858;29;20132;-71
2023/07/04 12:44:54;;;;;;;8.35;2.53;;;18.40;99.90;;;;;;4805291;29;20046;-71
2023/07/04 12:47:23;;;;;;;5.18;2.53;;;18.40;99.90;;;;;;4801079;29;20768;-71
2023/07/04 12:49:52;;;;;;;6.85;2.47;;;18.50;99.90;;;;;;4816747;29;20050;-71
2023/07/04 12:52:22;;;;;;;8.68;2.90;;;18.50;99.90;;;;;;4832214;29;20054;-71
2023/07/04 12:58:29;;;;;;;9.30;2.83;;;18.50;99.90;;;;;;4833227;29;20174;-71
2023/07/04 13:00:55;;;;;;;6.80;2.83;;;18.50;99.90;;;;;;4815922;29;20057;-71
2023/07/04 13:03:21;;;;;;;6.95;2.78;;;18.60;99.90;;;;;;4814856;29;20058;-71
2023/07/04 13:05:50;;;;;;;8.95;2.58;;;18.70;99.90;;;;;;4816636;29;20081;-71
2023/07/04 13:08:28;;;;;;;6.63;2.60;;;18.70;99.90;;;;;;4831312;29;20576;-71
2023/07/04 13:10:58;;;;;;;6.43;2.63;;;18.60;99.90;;;;;;4832328;29;20148;-71
2023/07/04 13:13:43;;;;;;;5.88;2.65;;;18.50;99.90;;;;;;4815864;29;20053;-71
2023/07/04 13:16:20;;;;;;;5.85;2.47;;;18.60;99.90;;;;;;4831591;29;20053;-71
2023/07/04 13:18:47;;;;;;;7.10;2.70;;;18.70;99.90;;;;;;4832786;29;20053;-71
2023/07/04 13:21:45;;;;;;;6.68;2.30;;;18.90;99.90;;;;;;4799569;29;20041;-71
2023/07/04 13:24:26;;;;;;;10.10;2.72;;;18.90;99.90;;;;;;4823768;29;20061;-71
2023/07/04 13:26:52;;;;;;;5.13;2.10;;;18.90;99.90;;;;;;4815366;29;20057;-71
2023/07/04 13:29:27;;;;;;;5.82;2.58;;;19.00;99.90;;;;;;4814453;29;20069;-71
2023/07/04 13:31:53;;;;;;;4.40;2.22;;;19.30;99.90;;;;;;4798411;29;20050;-71
2023/07/04 13:34:22;;;;;;;7.82;2.50;;;19.60;99.90;;;;;;4814212;29;20053;-71
2023/07/04 13:36:54;;;;;;;6.50;2.40;;;19.80;99.90;;;;;;4830034;29;20054;-71
2023/07/04 13:50:24;;;;;;;5.30;1.83;;;20.60;99.90;;;;;;4831937;29;20114;-71
2023/07/04 13:52:51;;;;;;;6.35;2.30;;;20.60;99.90;;;;;;4813116;29;20109;-70
2023/07/04 13:55:17;;;;;;;6.63;2.30;;;20.40;99.90;;;;;;4816082;29;20588;-71
2023/07/04 13:57:43;;;;;;;5.88;2.30;;;20.50;99.90;;;;;;4800000;29;20114;-71
2023/07/04 14:00:11;;;;;;;6.70;2.63;;;20.40;99.90;;;;;;4830085;29;20053;-71
2023/07/04 14:02:36;;;;;;;5.65;2.17;;;20.40;99.90;;;;;;4814737;29;20050;-71
2023/07/04 14:05:02;;;;;;;7.45;2.17;;;20.20;99.90;;;;;;4831133;29;20179;-71
